<?xml version="1.0" encoding="UTF-8" standalone="no" ?>
<gpx xmlns="http://www.topografix.com/GPX/1/1" xmlns:xsi="http://www.w3.org/2001/XMLSchema-instance" xsi:schemaLocation="http://www.topografix.com/GPX/1/1 http://www.topografix.com/GPX/1/1/gpx.xsd" version="1.1" creator="VisuGPX - https://www.visugpx.com">
  <metadata>
    <name>Caurel_LacGuerledan13-15km</name>
    <desc><![CDATA[gnerando idor:8140768_8140798]]></desc>
  </metadata>
  <trk>
    <name><![CDATA[LacGuerledan_StAignanBoisDuFao_12.8km-8140768]]></name>
    <extensions>
      <line xmlns="http://www.topografix.com/GPX/gpx_style/0/2">
        <color>0000FF</color>
        <width>4</width>
      </line>
    </extensions>
    <trkseg>
      <trkpt lat="48.18308" lon="-3.0136">
        <ele>82</ele>
        <time>2023-11-12T06:45:05Z</time>
      </trkpt>
      <trkpt lat="48.18497" lon="-3.01549">
        <ele>90</ele>
        <time>2023-11-12T06:50:08Z</time>
      </trkpt>
      <trkpt lat="48.18706" lon="-3.01712">
        <ele>85</ele>
        <time>2023-11-12T06:55:22Z</time>
      </trkpt>
      <trkpt lat="48.1876" lon="-3.01832">
        <ele>90</ele>
        <time>2023-11-12T06:57:31Z</time>
      </trkpt>
      <trkpt lat="48.19012" lon="-3.01935">
        <ele>98</ele>
        <time>2023-11-12T07:03:20Z</time>
      </trkpt>
      <trkpt lat="48.19224" lon="-3.02115">
        <ele>109</ele>
        <time>2023-11-12T07:08:45Z</time>
      </trkpt>
      <trkpt lat="48.19324" lon="-3.02072">
        <ele>103</ele>
        <time>2023-11-12T07:11:04Z</time>
      </trkpt>
      <trkpt lat="48.19416" lon="-3.01961">
        <ele>97</ele>
        <time>2023-11-12T07:13:41Z</time>
      </trkpt>
      <trkpt lat="48.19493" lon="-3.01961">
        <ele>121</ele>
        <time>2023-11-12T07:15:24Z</time>
      </trkpt>
      <trkpt lat="48.19619" lon="-3.01866">
        <ele>124</ele>
        <time>2023-11-12T07:18:32Z</time>
      </trkpt>
      <trkpt lat="48.19593" lon="-3.02046">
        <ele>138</ele>
        <time>2023-11-12T07:21:16Z</time>
      </trkpt>
      <trkpt lat="48.19501" lon="-3.02497">
        <ele>151</ele>
        <time>2023-11-12T07:28:16Z</time>
      </trkpt>
      <trkpt lat="48.19481" lon="-3.02879">
        <ele>154</ele>
        <time>2023-11-12T07:33:56Z</time>
      </trkpt>
      <trkpt lat="48.19619" lon="-3.03227">
        <ele>156</ele>
        <time>2023-11-12T07:39:57Z</time>
      </trkpt>
      <trkpt lat="48.19736" lon="-3.03312">
        <ele>137</ele>
        <time>2023-11-12T07:42:50Z</time>
      </trkpt>
      <trkpt lat="48.19822" lon="-3.03458">
        <ele>147</ele>
        <time>2023-11-12T07:45:43Z</time>
      </trkpt>
      <trkpt lat="48.19908" lon="-3.03609">
        <ele>151</ele>
        <time>2023-11-12T07:48:40Z</time>
      </trkpt>
      <trkpt lat="48.20019" lon="-3.03613">
        <ele>135</ele>
        <time>2023-11-12T07:51:08Z</time>
      </trkpt>
      <trkpt lat="48.20071" lon="-3.03712">
        <ele>142</ele>
        <time>2023-11-12T07:53:00Z</time>
      </trkpt>
      <trkpt lat="48.20156" lon="-3.03793">
        <ele>130</ele>
        <time>2023-11-12T07:55:15Z</time>
      </trkpt>
      <trkpt lat="48.20202" lon="-3.04188">
        <ele>141</ele>
        <time>2023-11-12T08:01:11Z</time>
      </trkpt>
      <trkpt lat="48.20154" lon="-3.04694">
        <ele>144</ele>
        <time>2023-11-12T08:08:46Z</time>
      </trkpt>
      <trkpt lat="48.20174" lon="-3.04905">
        <ele>156</ele>
        <time>2023-11-12T08:11:56Z</time>
      </trkpt>
      <trkpt lat="48.20331" lon="-3.05179">
        <ele>139</ele>
        <time>2023-11-12T08:17:17Z</time>
      </trkpt>
      <trkpt lat="48.20359" lon="-3.05287">
        <ele>144</ele>
        <time>2023-11-12T08:19:00Z</time>
      </trkpt>
      <trkpt lat="48.2046" lon="-3.05342">
        <ele>136</ele>
        <time>2023-11-12T08:21:23Z</time>
      </trkpt>
      <trkpt lat="48.20534" lon="-3.05527">
        <ele>141</ele>
        <time>2023-11-12T08:24:35Z</time>
      </trkpt>
      <trkpt lat="48.20451" lon="-3.06063">
        <ele>139</ele>
        <time>2023-11-12T08:32:45Z</time>
      </trkpt>
      <trkpt lat="48.20445" lon="-3.06626">
        <ele>129</ele>
        <time>2023-11-12T08:41:05Z</time>
      </trkpt>
      <trkpt lat="48.20365" lon="-3.06763">
        <ele>128</ele>
        <time>2023-11-12T08:43:47Z</time>
      </trkpt>
      <trkpt lat="48.20188" lon="-3.06896">
        <ele>140</ele>
        <time>2023-11-12T08:48:12Z</time>
      </trkpt>
      <trkpt lat="48.20382" lon="-3.0696">
        <ele>133</ele>
        <time>2023-11-12T08:52:37Z</time>
      </trkpt>
      <trkpt lat="48.20497" lon="-3.07377">
        <ele>143</ele>
        <time>2023-11-12T08:59:18Z</time>
      </trkpt>
      <trkpt lat="48.20648" lon="-3.07651">
        <ele>137</ele>
        <time>2023-11-12T09:04:34Z</time>
      </trkpt>
      <trkpt lat="48.20917" lon="-3.07892">
        <ele>126</ele>
        <time>2023-11-12T09:11:32Z</time>
      </trkpt>
      <trkpt lat="48.20871" lon="-3.08046">
        <ele>135</ele>
        <time>2023-11-12T09:14:02Z</time>
      </trkpt>
      <trkpt lat="48.2086" lon="-3.08304">
        <ele>133</ele>
        <time>2023-11-12T09:17:52Z</time>
      </trkpt>
      <trkpt lat="48.2078" lon="-3.08428">
        <ele>136</ele>
        <time>2023-11-12T09:20:26Z</time>
      </trkpt>
      <trkpt lat="48.20726" lon="-3.08385">
        <ele>150</ele>
        <time>2023-11-12T09:21:47Z</time>
      </trkpt>
      <trkpt lat="48.20688" lon="-3.08462">
        <ele>133</ele>
        <time>2023-11-12T09:23:13Z</time>
      </trkpt>
      <trkpt lat="48.20583" lon="-3.08411">
        <ele>147</ele>
        <time>2023-11-12T09:25:40Z</time>
      </trkpt>
      <trkpt lat="48.20457" lon="-3.08389">
        <ele>148</ele>
        <time>2023-11-12T09:28:29Z</time>
      </trkpt>
      <trkpt lat="48.20282" lon="-3.08608">
        <ele>141</ele>
        <time>2023-11-12T09:33:33Z</time>
      </trkpt>
      <trkpt lat="48.20136" lon="-3.08964">
        <ele>150</ele>
        <time>2023-11-12T09:39:45Z</time>
      </trkpt>
      <trkpt lat="48.20131" lon="-3.09213">
        <ele>143</ele>
        <time>2023-11-12T09:43:27Z</time>
      </trkpt>
      <trkpt lat="48.20114" lon="-3.09497">
        <ele>154</ele>
        <time>2023-11-12T09:47:40Z</time>
      </trkpt>
      <trkpt lat="48.20196" lon="-3.0969">
        <ele>162</ele>
        <time>2023-11-12T09:51:04Z</time>
      </trkpt>
      <trkpt lat="48.20385" lon="-3.09604">
        <ele>146</ele>
        <time>2023-11-12T09:55:27Z</time>
      </trkpt>
      <trkpt lat="48.20494" lon="-3.09642">
        <ele>138</ele>
        <time>2023-11-12T09:57:57Z</time>
      </trkpt>
      <trkpt lat="48.20568" lon="-3.0984">
        <ele>149</ele>
        <time>2023-11-12T10:01:19Z</time>
      </trkpt>
      <trkpt lat="48.2058" lon="-3.09921">
        <ele>146</ele>
        <time>2023-11-12T10:02:32Z</time>
      </trkpt>
      <trkpt lat="48.20517" lon="-3.10209">
        <ele>153</ele>
        <time>2023-11-12T10:07:02Z</time>
      </trkpt>
      <trkpt lat="48.20482" lon="-3.10634">
        <ele>154</ele>
        <time>2023-11-12T10:13:23Z</time>
      </trkpt>
      <trkpt lat="48.20594" lon="-3.10737">
        <ele>139</ele>
        <time>2023-11-12T10:16:18Z</time>
      </trkpt>
      <trkpt lat="48.20683" lon="-3.10797">
        <ele>139</ele>
        <time>2023-11-12T10:18:28Z</time>
      </trkpt>
      <trkpt lat="48.20686" lon="-3.10921">
        <ele>135</ele>
        <time>2023-11-12T10:20:19Z</time>
      </trkpt>
      <trkpt lat="48.20577" lon="-3.10977">
        <ele>141</ele>
        <time>2023-11-12T10:22:52Z</time>
      </trkpt>
      <trkpt lat="48.20517" lon="-3.11063">
        <ele>145</ele>
        <time>2023-11-12T10:24:43Z</time>
      </trkpt>
      <trkpt lat="48.20497" lon="-3.11243">
        <ele>146</ele>
        <time>2023-11-12T10:27:25Z</time>
      </trkpt>
      <trkpt lat="48.20528" lon="-3.11346">
        <ele>142</ele>
        <time>2023-11-12T10:29:06Z</time>
      </trkpt>
      <trkpt lat="48.20594" lon="-3.11531">
        <ele>138</ele>
        <time>2023-11-12T10:32:13Z</time>
      </trkpt>
      <trkpt lat="48.20663" lon="-3.11591">
        <ele>134</ele>
        <time>2023-11-12T10:33:59Z</time>
      </trkpt>
      <trkpt lat="48.20797" lon="-3.11677">
        <ele>146</ele>
        <time>2023-11-12T10:37:14Z</time>
      </trkpt>
      <trkpt lat="48.20929" lon="-3.11741">
        <ele>136</ele>
        <time>2023-11-12T10:40:19Z</time>
      </trkpt>
      <trkpt lat="48.20997" lon="-3.12011">
        <ele>143</ele>
        <time>2023-11-12T10:44:35Z</time>
      </trkpt>
      <trkpt lat="48.20989" lon="-3.12548">
        <ele>143</ele>
        <time>2023-11-12T10:52:33Z</time>
      </trkpt>
      <trkpt lat="48.21029" lon="-3.12857">
        <ele>150</ele>
        <time>2023-11-12T10:57:13Z</time>
      </trkpt>
      <trkpt lat="48.21152" lon="-3.13029">
        <ele>142</ele>
        <time>2023-11-12T11:00:57Z</time>
      </trkpt>
    </trkseg>
  </trk>
</gpx>